Parker, Pennsylvania
Current Conditions -  °F | °C
As of 9:15 PM on Saturday 22 Nov 2014 (Local Time) from KFKL Reporting Station
Overcast Overcast  
Wind Chill: 34°   Ceiling: 3500
Heat Index: 41°   Visibility: 10mi
Dew Point: 30°   Wind: 12mph
Humidity: 65%   Direction: 200°SSW
Pressure: 30.08"   Gusts: 17mph
Location:  41.1°N, 79.68°W
Report Text: KFKL 230215Z AUTO 20010G15KT 10SM OVC035 05/M01 A3008 RMK AO1
Loading
Personal Weather Stations






























Interactive Weather Map New forecast layout! Learn more

10-Day Weather Forecast

Advertisements
Track Severe Weather on mobile